sensor_id;sensor_type;location;lat;lon;timestamp;temperature;humidity
23377;DHT22;14353;46.070;13.222;2023-04-06T00:01:39;20.90;29.90
23377;DHT22;14353;46.070;13.222;2023-04-06T00:04:05;20.80;29.80
23377;DHT22;14353;46.070;13.222;2023-04-06T00:06:31;20.80;29.80
23377;DHT22;14353;46.070;13.222;2023-04-06T00:08:58;20.80;29.80
23377;DHT22;14353;46.070;13.222;2023-04-06T00:11:24;20.80;29.80
23377;DHT22;14353;46.070;13.222;2023-04-06T00:13:50;20.80;29.90
23377;DHT22;14353;46.070;13.222;2023-04-06T00:16:16;20.80;29.90
23377;DHT22;14353;46.070;13.222;2023-04-06T00:18:42;20.80;29.90
23377;DHT22;14353;46.070;13.222;2023-04-06T00:21:07;20.80;29.90
23377;DHT22;14353;46.070;13.222;2023-04-06T00:23:33;20.80;29.90
23377;DHT22;14353;46.070;13.222;2023-04-06T00:25:59;20.80;29.90
23377;DHT22;14353;46.070;13.222;2023-04-06T00:28:24;20.80;29.90
23377;DHT22;14353;46.070;13.222;2023-04-06T00:30:54;20.70;29.90
23377;DHT22;14353;46.070;13.222;2023-04-06T00:33:21;20.70;29.90
23377;DHT22;14353;46.070;13.222;2023-04-06T00:35:47;20.70;30.00
23377;DHT22;14353;46.070;13.222;2023-04-06T00:38:14;20.70;30.00
23377;DHT22;14353;46.070;13.222;2023-04-06T00:40:40;20.80;30.00
23377;DHT22;14353;46.070;13.222;2023-04-06T00:43:06;20.70;30.00
23377;DHT22;14353;46.070;13.222;2023-04-06T00:45:33;20.70;30.00
23377;DHT22;14353;46.070;13.222;2023-04-06T00:47:59;20.70;30.60
23377;DHT22;14353;46.070;13.222;2023-04-06T00:50:25;20.70;30.00
23377;DHT22;14353;46.070;13.222;2023-04-06T00:52:51;20.70;30.00
23377;DHT22;14353;46.070;13.222;2023-04-06T00:55:17;20.70;30.00
23377;DHT22;14353;46.070;13.222;2023-04-06T00:57:43;20.70;30.00
23377;DHT22;14353;46.070;13.222;2023-04-06T01:00:09;20.70;30.00
23377;DHT22;14353;46.070;13.222;2023-04-06T01:02:35;20.60;30.00
23377;DHT22;14353;46.070;13.222;2023-04-06T01:05:02;20.70;30.00
23377;DHT22;14353;46.070;13.222;2023-04-06T01:07:27;20.70;30.00
23377;DHT22;14353;46.070;13.222;2023-04-06T01:09:54;20.60;30.00
23377;DHT22;14353;46.070;13.222;2023-04-06T01:12:20;20.60;30.00
23377;DHT22;14353;46.070;13.222;2023-04-06T01:14:46;20.60;30.00
23377;DHT22;14353;46.070;13.222;2023-04-06T01:17:11;20.60;30.00
23377;DHT22;14353;46.070;13.222;2023-04-06T01:19:37;20.60;30.00
23377;DHT22;14353;46.070;13.222;2023-04-06T01:22:03;20.60;30.10
23377;DHT22;14353;46.070;13.222;2023-04-06T01:24:29;20.60;30.00
23377;DHT22;14353;46.070;13.222;2023-04-06T01:26:55;20.60;30.00
23377;DHT22;14353;46.070;13.222;2023-04-06T01:29:21;20.60;30.10
23377;DHT22;14353;46.070;13.222;2023-04-06T01:31:47;20.60;30.00
23377;DHT22;14353;46.070;13.222;2023-04-06T01:34:13;20.60;30.00
23377;DHT22;14353;46.070;13.222;2023-04-06T01:36:39;20.60;30.10
23377;DHT22;14353;46.070;13.222;2023-04-06T01:39:04;20.60;30.10
23377;DHT22;14353;46.070;13.222;2023-04-06T01:41:30;20.50;30.00
23377;DHT22;14353;46.070;13.222;2023-04-06T01:43:56;20.50;30.00
23377;DHT22;14353;46.070;13.222;2023-04-06T01:46:22;20.60;30.10
23377;DHT22;14353;46.070;13.222;2023-04-06T01:48:47;20.50;30.10
23377;DHT22;14353;46.070;13.222;2023-04-06T01:51:14;20.60;30.10
23377;DHT22;14353;46.070;13.222;2023-04-06T01:53:39;20.50;30.10
23377;DHT22;14353;46.070;13.222;2023-04-06T01:56:06;20.60;30.10
23377;DHT22;14353;46.070;13.222;2023-04-06T01:58:31;20.50;30.10
23377;DHT22;14353;46.070;13.222;2023-04-06T02:00:57;20.50;30.10
23377;DHT22;14353;46.070;13.222;2023-04-06T02:03:23;20.50;30.10
23377;DHT22;14353;46.070;13.222;2023-04-06T02:05:49;20.50;30.10
23377;DHT22;14353;46.070;13.222;2023-04-06T02:08:14;20.50;30.10
23377;DHT22;14353;46.070;13.222;2023-04-06T02:10:40;20.50;30.10
23377;DHT22;14353;46.070;13.222;2023-04-06T02:13:06;20.50;30.10
23377;DHT22;14353;46.070;13.222;2023-04-06T02:15:32;20.50;30.10
23377;DHT22;14353;46.070;13.222;2023-04-06T02:17:58;20.50;30.10
23377;DHT22;14353;46.070;13.222;2023-04-06T02:20:24;20.50;30.10
23377;DHT22;14353;46.070;13.222;2023-04-06T02:22:50;20.50;30.20
23377;DHT22;14353;46.070;13.222;2023-04-06T02:25:16;20.50;30.20
23377;DHT22;14353;46.070;13.222;2023-04-06T02:27:42;20.50;30.20
23377;DHT22;14353;46.070;13.222;2023-04-06T02:30:08;20.50;30.10
23377;DHT22;14353;46.070;13.222;2023-04-06T02:32:34;20.50;30.20
23377;DHT22;14353;46.070;13.222;2023-04-06T02:35:00;20.50;30.20
23377;DHT22;14353;46.070;13.222;2023-04-06T02:37:25;20.40;30.20
23377;DHT22;14353;46.070;13.222;2023-04-06T02:39:51;20.40;30.10
23377;DHT22;14353;46.070;13.222;2023-04-06T02:42:17;20.40;30.20
23377;DHT22;14353;46.070;13.222;2023-04-06T02:44:43;20.40;30.10
23377;DHT22;14353;46.070;13.222;2023-04-06T02:47:09;20.40;30.20
23377;DHT22;14353;46.070;13.222;2023-04-06T02:49:35;20.40;30.20
23377;DHT22;14353;46.070;13.222;2023-04-06T02:52:02;20.40;30.20
23377;DHT22;14353;46.070;13.222;2023-04-06T02:54:28;20.40;30.30
23377;DHT22;14353;46.070;13.222;2023-04-06T02:56:53;20.40;30.20
23377;DHT22;14353;46.070;13.222;2023-04-06T02:59:19;20.40;30.30
23377;DHT22;14353;46.070;13.222;2023-04-06T03:01:45;20.40;30.20
23377;DHT22;14353;46.070;13.222;2023-04-06T03:04:11;20.40;30.30
23377;DHT22;14353;46.070;13.222;2023-04-06T03:06:37;20.40;30.30
23377;DHT22;14353;46.070;13.222;2023-04-06T03:09:03;20.40;30.40
23377;DHT22;14353;46.070;13.222;2023-04-06T03:11:29;20.40;30.30
23377;DHT22;14353;46.070;13.222;2023-04-06T03:13:54;20.40;30.30
23377;DHT22;14353;46.070;13.222;2023-04-06T03:16:20;20.30;30.30
23377;DHT22;14353;46.070;13.222;2023-04-06T03:18:46;20.30;30.30
23377;DHT22;14353;46.070;13.222;2023-04-06T03:21:13;20.30;30.30
23377;DHT22;14353;46.070;13.222;2023-04-06T03:23:40;20.30;30.40
23377;DHT22;14353;46.070;13.222;2023-04-06T03:26:06;20.30;30.30
23377;DHT22;14353;46.070;13.222;2023-04-06T03:28:32;20.30;30.40
23377;DHT22;14353;46.070;13.222;2023-04-06T03:30:58;20.30;30.30
23377;DHT22;14353;46.070;13.222;2023-04-06T03:33:23;20.30;30.30
23377;DHT22;14353;46.070;13.222;2023-04-06T03:35:49;20.30;30.30
23377;DHT22;14353;46.070;13.222;2023-04-06T03:38:15;20.30;30.40
23377;DHT22;14353;46.070;13.222;2023-04-06T03:40:41;20.30;30.30
23377;DHT22;14353;46.070;13.222;2023-04-06T03:43:08;20.30;30.30
23377;DHT22;14353;46.070;13.222;2023-04-06T03:45:34;20.30;30.40
23377;DHT22;14353;46.070;13.222;2023-04-06T03:48:00;20.30;30.40
23377;DHT22;14353;46.070;13.222;2023-04-06T03:50:26;20.30;30.40
23377;DHT22;14353;46.070;13.222;2023-04-06T03:52:51;20.30;30.40
23377;DHT22;14353;46.070;13.222;2023-04-06T03:55:17;20.30;31.00
23377;DHT22;14353;46.070;13.222;2023-04-06T03:57:43;20.30;30.50
23377;DHT22;14353;46.070;13.222;2023-04-06T04:00:09;20.30;30.50
23377;DHT22;14353;46.070;13.222;2023-04-06T04:02:35;20.30;30.40
23377;DHT22;14353;46.070;13.222;2023-04-06T04:05:01;20.30;30.40
23377;DHT22;14353;46.070;13.222;2023-04-06T04:07:26;20.20;30.40
23377;DHT22;14353;46.070;13.222;2023-04-06T04:09:52;20.20;30.30
23377;DHT22;14353;46.070;13.222;2023-04-06T04:12:18;20.30;30.50
23377;DHT22;14353;46.070;13.222;2023-04-06T04:14:44;20.20;30.40
23377;DHT22;14353;46.070;13.222;2023-04-06T04:17:09;20.20;30.40
23377;DHT22;14353;46.070;13.222;2023-04-06T04:19:35;20.20;30.40
23377;DHT22;14353;46.070;13.222;2023-04-06T04:22:01;20.20;30.40
23377;DHT22;14353;46.070;13.222;2023-04-06T04:24:30;20.20;30.40
23377;DHT22;14353;46.070;13.222;2023-04-06T04:26:55;20.20;30.40
23377;DHT22;14353;46.070;13.222;2023-04-06T04:29:22;20.20;30.40
23377;DHT22;14353;46.070;13.222;2023-04-06T04:31:48;20.20;30.40
23377;DHT22;14353;46.070;13.222;2023-04-06T04:34:15;20.20;30.40
23377;DHT22;14353;46.070;13.222;2023-04-06T04:36:41;20.20;30.40
23377;DHT22;14353;46.070;13.222;2023-04-06T04:39:10;20.20;30.40
23377;DHT22;14353;46.070;13.222;2023-04-06T04:41:35;20.20;30.40
23377;DHT22;14353;46.070;13.222;2023-04-06T04:44:02;20.20;30.50
23377;DHT22;14353;46.070;13.222;2023-04-06T04:46:27;20.20;30.50
23377;DHT22;14353;46.070;13.222;2023-04-06T04:48:53;20.20;30.50
23377;DHT22;14353;46.070;13.222;2023-04-06T04:51:19;20.20;30.50
23377;DHT22;14353;46.070;13.222;2023-04-06T04:53:47;20.20;30.50
23377;DHT22;14353;46.070;13.222;2023-04-06T04:56:13;20.20;30.50
23377;DHT22;14353;46.070;13.222;2023-04-06T04:58:39;20.20;30.50
23377;DHT22;14353;46.070;13.222;2023-04-06T05:01:05;20.20;30.50
23377;DHT22;14353;46.070;13.222;2023-04-06T05:03:32;20.20;30.50
23377;DHT22;14353;46.070;13.222;2023-04-06T05:05:58;20.20;30.50
23377;DHT22;14353;46.070;13.222;2023-04-06T05:08:24;20.20;30.50
23377;DHT22;14353;46.070;13.222;2023-04-06T05:10:50;20.20;30.50
23377;DHT22;14353;46.070;13.222;2023-04-06T05:13:16;20.20;30.50
23377;DHT22;14353;46.070;13.222;2023-04-06T05:15:42;20.20;30.60
23377;DHT22;14353;46.070;13.222;2023-04-06T05:18:07;20.20;30.50
23377;DHT22;14353;46.070;13.222;2023-04-06T05:20:34;20.20;30.50
23377;DHT22;14353;46.070;13.222;2023-04-06T05:23:00;20.20;30.50
23377;DHT22;14353;46.070;13.222;2023-04-06T05:25:26;20.20;30.50
23377;DHT22;14353;46.070;13.222;2023-04-06T05:27:52;20.20;30.50
23377;DHT22;14353;46.070;13.222;2023-04-06T05:30:18;20.20;30.50
23377;DHT22;14353;46.070;13.222;2023-04-06T05:32:44;20.20;30.50
23377;DHT22;14353;46.070;13.222;2023-04-06T05:35:10;20.20;30.50
23377;DHT22;14353;46.070;13.222;2023-04-06T05:37:36;20.20;30.50
23377;DHT22;14353;46.070;13.222;2023-04-06T05:40:03;20.20;30.50
23377;DHT22;14353;46.070;13.222;2023-04-06T05:42:39;20.20;30.50
23377;DHT22;14353;46.070;13.222;2023-04-06T05:45:07;20.20;30.50
23377;DHT22;14353;46.070;13.222;2023-04-06T05:47:32;20.20;30.50
23377;DHT22;14353;46.070;13.222;2023-04-06T05:49:58;20.20;30.50
23377;DHT22;14353;46.070;13.222;2023-04-06T05:52:24;20.20;30.60
23377;DHT22;14353;46.070;13.222;2023-04-06T05:54:50;20.20;30.60
23377;DHT22;14353;46.070;13.222;2023-04-06T05:57:16;20.20;30.50
23377;DHT22;14353;46.070;13.222;2023-04-06T05:59:44;20.20;30.60
23377;DHT22;14353;46.070;13.222;2023-04-06T06:02:10;20.20;30.60
23377;DHT22;14353;46.070;13.222;2023-04-06T06:04:35;20.20;30.60
23377;DHT22;14353;46.070;13.222;2023-04-06T06:07:01;20.20;30.60
23377;DHT22;14353;46.070;13.222;2023-04-06T06:09:27;20.20;30.50
23377;DHT22;14353;46.070;13.222;2023-04-06T06:11:53;20.20;30.60
23377;DHT22;14353;46.070;13.222;2023-04-06T06:14:18;20.20;30.50
23377;DHT22;14353;46.070;13.222;2023-04-06T06:16:45;20.20;30.40
23377;DHT22;14353;46.070;13.222;2023-04-06T06:19:11;20.30;30.60
23377;DHT22;14353;46.070;13.222;2023-04-06T06:21:36;20.30;30.60
23377;DHT22;14353;46.070;13.222;2023-04-06T06:24:02;20.30;30.50
23377;DHT22;14353;46.070;13.222;2023-04-06T06:26:28;20.30;30.50
23377;DHT22;14353;46.070;13.222;2023-04-06T06:28:54;20.30;30.50
23377;DHT22;14353;46.070;13.222;2023-04-06T06:31:20;20.30;30.50
23377;DHT22;14353;46.070;13.222;2023-04-06T06:33:48;20.40;30.60
23377;DHT22;14353;46.070;13.222;2023-04-06T06:36:17;20.40;30.50
23377;DHT22;14353;46.070;13.222;2023-04-06T06:38:43;20.40;30.50
23377;DHT22;14353;46.070;13.222;2023-04-06T06:41:09;20.40;30.40
23377;DHT22;14353;46.070;13.222;2023-04-06T06:43:34;20.40;30.40
23377;DHT22;14353;46.070;13.222;2023-04-06T06:46:00;20.40;30.40
23377;DHT22;14353;46.070;13.222;2023-04-06T06:48:26;20.40;30.40
23377;DHT22;14353;46.070;13.222;2023-04-06T06:50:52;20.50;30.40
23377;DHT22;14353;46.070;13.222;2023-04-06T06:53:17;20.50;30.40
23377;DHT22;14353;46.070;13.222;2023-04-06T06:55:43;20.50;30.30
23377;DHT22;14353;46.070;13.222;2023-04-06T06:58:09;20.50;30.30
23377;DHT22;14353;46.070;13.222;2023-04-06T07:00:35;20.60;30.40
23377;DHT22;14353;46.070;13.222;2023-04-06T07:03:01;20.50;30.30
23377;DHT22;14353;46.070;13.222;2023-04-06T07:05:27;20.60;30.30
23377;DHT22;14353;46.070;13.222;2023-04-06T07:07:54;20.60;30.20
23377;DHT22;14353;46.070;13.222;2023-04-06T07:10:19;20.60;30.20
23377;DHT22;14353;46.070;13.222;2023-04-06T07:12:45;20.60;30.20
23377;DHT22;14353;46.070;13.222;2023-04-06T07:15:11;20.60;30.10
23377;DHT22;14353;46.070;13.222;2023-04-06T07:17:37;20.70;30.90
23377;DHT22;14353;46.070;13.222;2023-04-06T07:20:03;20.70;30.20
23377;DHT22;14353;46.070;13.222;2023-04-06T07:22:29;20.70;30.20
23377;DHT22;14353;46.070;13.222;2023-04-06T07:24:56;20.70;30.10
23377;DHT22;14353;46.070;13.222;2023-04-06T07:27:21;20.70;30.10
23377;DHT22;14353;46.070;13.222;2023-04-06T07:29:47;20.80;30.00
23377;DHT22;14353;46.070;13.222;2023-04-06T07:32:13;20.80;30.00
23377;DHT22;14353;46.070;13.222;2023-04-06T07:34:38;20.80;30.00
23377;DHT22;14353;46.070;13.222;2023-04-06T07:37:04;20.80;30.00
23377;DHT22;14353;46.070;13.222;2023-04-06T07:39:30;20.90;30.00
23377;DHT22;14353;46.070;13.222;2023-04-06T07:41:55;20.90;30.00
23377;DHT22;14353;46.070;13.222;2023-04-06T07:44:21;20.90;30.00
23377;DHT22;14353;46.070;13.222;2023-04-06T07:46:47;20.90;30.00
23377;DHT22;14353;46.070;13.222;2023-04-06T07:49:13;20.90;29.90
23377;DHT22;14353;46.070;13.222;2023-04-06T07:51:39;20.90;29.90
23377;DHT22;14353;46.070;13.222;2023-04-06T07:54:05;21.00;30.00
23377;DHT22;14353;46.070;13.222;2023-04-06T07:56:31;21.00;29.90
23377;DHT22;14353;46.070;13.222;2023-04-06T07:58:57;21.00;29.90
23377;DHT22;14353;46.070;13.222;2023-04-06T08:01:24;21.00;29.80
23377;DHT22;14353;46.070;13.222;2023-04-06T08:03:50;21.00;29.90
23377;DHT22;14353;46.070;13.222;2023-04-06T08:06:16;21.10;29.90
23377;DHT22;14353;46.070;13.222;2023-04-06T08:08:42;21.00;29.80
23377;DHT22;14353;46.070;13.222;2023-04-06T08:11:08;21.10;29.80
23377;DHT22;14353;46.070;13.222;2023-04-06T08:13:34;21.10;29.80
23377;DHT22;14353;46.070;13.222;2023-04-06T08:16:01;21.10;29.80
23377;DHT22;14353;46.070;13.222;2023-04-06T08:18:27;21.20;29.80
23377;DHT22;14353;46.070;13.222;2023-04-06T08:20:54;21.20;29.80
23377;DHT22;14353;46.070;13.222;2023-04-06T08:23:20;21.20;29.70
23377;DHT22;14353;46.070;13.222;2023-04-06T08:25:46;21.20;29.70
23377;DHT22;14353;46.070;13.222;2023-04-06T08:28:12;21.20;29.70
23377;DHT22;14353;46.070;13.222;2023-04-06T08:30:40;21.20;29.70
23377;DHT22;14353;46.070;13.222;2023-04-06T08:33:06;21.20;29.70
23377;DHT22;14353;46.070;13.222;2023-04-06T08:35:32;21.30;29.60
23377;DHT22;14353;46.070;13.222;2023-04-06T08:37:57;21.30;29.60
23377;DHT22;14353;46.070;13.222;2023-04-06T08:40:23;21.30;29.60
23377;DHT22;14353;46.070;13.222;2023-04-06T08:42:54;21.30;29.50
23377;DHT22;14353;46.070;13.222;2023-04-06T08:45:21;21.40;29.60
23377;DHT22;14353;46.070;13.222;2023-04-06T08:47:49;21.40;29.50
23377;DHT22;14353;46.070;13.222;2023-04-06T08:50:16;21.40;29.50
23377;DHT22;14353;46.070;13.222;2023-04-06T08:52:47;21.40;29.50
23377;DHT22;14353;46.070;13.222;2023-04-06T08:55:14;21.40;29.50
23377;DHT22;14353;46.070;13.222;2023-04-06T08:57:41;21.40;29.40
23377;DHT22;14353;46.070;13.222;2023-04-06T09:00:10;21.40;29.40
23377;DHT22;14353;46.070;13.222;2023-04-06T09:02:42;21.40;29.40
23377;DHT22;14353;46.070;13.222;2023-04-06T09:05:08;21.40;29.40
23377;DHT22;14353;46.070;13.222;2023-04-06T09:07:36;21.50;29.40
23377;DHT22;14353;46.070;13.222;2023-04-06T09:10:03;21.50;29.40
23377;DHT22;14353;46.070;13.222;2023-04-06T09:12:30;21.50;29.40
23377;DHT22;14353;46.070;13.222;2023-04-06T09:14:57;21.50;29.40
23377;DHT22;14353;46.070;13.222;2023-04-06T09:17:31;21.50;29.40
23377;DHT22;14353;46.070;13.222;2023-04-06T09:20:00;21.50;29.30
23377;DHT22;14353;46.070;13.222;2023-04-06T09:22:34;21.50;29.30
23377;DHT22;14353;46.070;13.222;2023-04-06T09:25:00;21.50;29.30
23377;DHT22;14353;46.070;13.222;2023-04-06T09:27:33;21.60;29.30
23377;DHT22;14353;46.070;13.222;2023-04-06T09:30:10;21.60;29.30
23377;DHT22;14353;46.070;13.222;2023-04-06T09:32:49;21.60;29.30
23377;DHT22;14353;46.070;13.222;2023-04-06T09:35:15;21.60;29.30
23377;DHT22;14353;46.070;13.222;2023-04-06T09:37:42;21.60;29.30
23377;DHT22;14353;46.070;13.222;2023-04-06T09:40:09;21.60;29.20
23377;DHT22;14353;46.070;13.222;2023-04-06T09:42:35;21.70;29.30
23377;DHT22;14353;46.070;13.222;2023-04-06T09:45:02;21.70;29.30
23377;DHT22;14353;46.070;13.222;2023-04-06T09:47:30;21.70;29.20
23377;DHT22;14353;46.070;13.222;2023-04-06T09:49:57;21.70;29.10
23377;DHT22;14353;46.070;13.222;2023-04-06T09:52:30;21.70;29.10
23377;DHT22;14353;46.070;13.222;2023-04-06T09:55:02;21.70;29.10
23377;DHT22;14353;46.070;13.222;2023-04-06T09:57:57;21.70;29.10
23377;DHT22;14353;46.070;13.222;2023-04-06T10:00:25;21.80;29.10
23377;DHT22;14353;46.070;13.222;2023-04-06T10:03:27;21.80;29.10
23377;DHT22;14353;46.070;13.222;2023-04-06T10:06:00;21.80;29.00
23377;DHT22;14353;46.070;13.222;2023-04-06T10:08:28;21.80;29.10
23377;DHT22;14353;46.070;13.222;2023-04-06T10:10:55;21.80;29.10
23377;DHT22;14353;46.070;13.222;2023-04-06T10:13:23;21.80;29.10
23377;DHT22;14353;46.070;13.222;2023-04-06T10:15:51;21.80;29.00
23377;DHT22;14353;46.070;13.222;2023-04-06T10:18:17;21.80;29.00
23377;DHT22;14353;46.070;13.222;2023-04-06T10:21:01;21.90;29.00
23377;DHT22;14353;46.070;13.222;2023-04-06T10:23:31;21.90;29.10
23377;DHT22;14353;46.070;13.222;2023-04-06T10:25:59;21.90;29.10
23377;DHT22;14353;46.070;13.222;2023-04-06T10:28:30;21.90;29.10
23377;DHT22;14353;46.070;13.222;2023-04-06T10:31:01;21.90;29.00
23377;DHT22;14353;46.070;13.222;2023-04-06T10:33:28;21.90;29.00
23377;DHT22;14353;46.070;13.222;2023-04-06T10:35:54;21.90;29.00
23377;DHT22;14353;46.070;13.222;2023-04-06T10:38:37;22.00;29.00
23377;DHT22;14353;46.070;13.222;2023-04-06T10:41:07;22.00;29.00
23377;DHT22;14353;46.070;13.222;2023-04-06T10:43:35;22.00;29.00
23377;DHT22;14353;46.070;13.222;2023-04-06T10:46:02;22.10;29.50
23377;DHT22;14353;46.070;13.222;2023-04-06T10:51:11;22.10;28.80
23377;DHT22;14353;46.070;13.222;2023-04-06T10:53:38;22.10;28.90
23377;DHT22;14353;46.070;13.222;2023-04-06T10:56:10;22.10;28.80
23377;DHT22;14353;46.070;13.222;2023-04-06T10:58:53;22.20;28.80
23377;DHT22;14353;46.070;13.222;2023-04-06T11:01:21;22.20;28.80
23377;DHT22;14353;46.070;13.222;2023-04-06T11:03:49;22.20;28.70
23377;DHT22;14353;46.070;13.222;2023-04-06T11:06:24;22.30;28.80
23377;DHT22;14353;46.070;13.222;2023-04-06T11:08:51;22.30;28.80
23377;DHT22;14353;46.070;13.222;2023-04-06T11:11:19;22.30;28.70
23377;DHT22;14353;46.070;13.222;2023-04-06T11:13:53;22.40;28.70
23377;DHT22;14353;46.070;13.222;2023-04-06T11:16:30;22.40;28.70
23377;DHT22;14353;46.070;13.222;2023-04-06T11:19:04;22.40;28.70
23377;DHT22;14353;46.070;13.222;2023-04-06T11:21:36;22.40;28.60
23377;DHT22;14353;46.070;13.222;2023-04-06T11:24:24;22.50;28.60
23377;DHT22;14353;46.070;13.222;2023-04-06T11:26:51;22.50;28.60
23377;DHT22;14353;46.070;13.222;2023-04-06T11:29:22;22.50;28.60
23377;DHT22;14353;46.070;13.222;2023-04-06T11:32:02;22.50;28.60
23377;DHT22;14353;46.070;13.222;2023-04-06T11:34:30;22.50;28.60
23377;DHT22;14353;46.070;13.222;2023-04-06T11:36:58;22.50;28.60
23377;DHT22;14353;46.070;13.222;2023-04-06T11:39:26;22.60;28.60
23377;DHT22;14353;46.070;13.222;2023-04-06T11:42:02;22.60;28.60
23377;DHT22;14353;46.070;13.222;2023-04-06T11:44:38;22.60;28.60
23377;DHT22;14353;46.070;13.222;2023-04-06T11:47:09;22.60;28.60
23377;DHT22;14353;46.070;13.222;2023-04-06T11:49:41;22.60;28.60
23377;DHT22;14353;46.070;13.222;2023-04-06T11:52:22;22.70;28.60
23377;DHT22;14353;46.070;13.222;2023-04-06T11:54:48;22.70;28.50
23377;DHT22;14353;46.070;13.222;2023-04-06T11:57:15;22.70;28.50
23377;DHT22;14353;46.070;13.222;2023-04-06T11:59:42;22.70;28.40
23377;DHT22;14353;46.070;13.222;2023-04-06T12:02:08;22.70;28.40
23377;DHT22;14353;46.070;13.222;2023-04-06T12:04:34;22.80;28.50
23377;DHT22;14353;46.070;13.222;2023-04-06T12:07:01;22.80;28.40
23377;DHT22;14353;46.070;13.222;2023-04-06T12:09:27;22.80;28.40
23377;DHT22;14353;46.070;13.222;2023-04-06T12:11:53;22.90;28.90
23377;DHT22;14353;46.070;13.222;2023-04-06T12:14:18;22.90;28.40
23377;DHT22;14353;46.070;13.222;2023-04-06T12:16:44;22.90;28.40
23377;DHT22;14353;46.070;13.222;2023-04-06T12:19:10;22.90;28.30
23377;DHT22;14353;46.070;13.222;2023-04-06T12:21:36;23.00;28.30
23377;DHT22;14353;46.070;13.222;2023-04-06T12:24:06;23.00;28.30
23377;DHT22;14353;46.070;13.222;2023-04-06T12:26:32;23.00;28.30
23377;DHT22;14353;46.070;13.222;2023-04-06T12:29:01;23.10;28.30
23377;DHT22;14353;46.070;13.222;2023-04-06T12:31:32;23.10;28.30
23377;DHT22;14353;46.070;13.222;2023-04-06T12:33:58;23.10;28.30
23377;DHT22;14353;46.070;13.222;2023-04-06T12:36:24;23.10;28.30
23377;DHT22;14353;46.070;13.222;2023-04-06T12:38:50;23.20;28.80
23377;DHT22;14353;46.070;13.222;2023-04-06T12:41:17;23.20;28.20
23377;DHT22;14353;46.070;13.222;2023-04-06T12:43:43;23.20;28.30
23377;DHT22;14353;46.070;13.222;2023-04-06T12:46:09;23.20;28.20
23377;DHT22;14353;46.070;13.222;2023-04-06T12:48:35;23.30;28.20
23377;DHT22;14353;46.070;13.222;2023-04-06T12:51:04;23.30;28.20
23377;DHT22;14353;46.070;13.222;2023-04-06T12:53:30;23.30;28.10
23377;DHT22;14353;46.070;13.222;2023-04-06T12:55:56;23.30;28.10
23377;DHT22;14353;46.070;13.222;2023-04-06T12:58:23;23.40;28.20
23377;DHT22;14353;46.070;13.222;2023-04-06T13:00:52;23.40;28.20
23377;DHT22;14353;46.070;13.222;2023-04-06T13:03:19;23.40;28.10
23377;DHT22;14353;46.070;13.222;2023-04-06T13:05:49;23.50;28.10
23377;DHT22;14353;46.070;13.222;2023-04-06T13:08:16;23.50;28.10
23377;DHT22;14353;46.070;13.222;2023-04-06T13:10:47;23.50;28.10
23377;DHT22;14353;46.070;13.222;2023-04-06T13:13:17;23.50;28.00
23377;DHT22;14353;46.070;13.222;2023-04-06T13:15:44;23.50;28.10
23377;DHT22;14353;46.070;13.222;2023-04-06T13:18:10;23.60;28.00
23377;DHT22;14353;46.070;13.222;2023-04-06T13:20:36;23.60;28.10
23377;DHT22;14353;46.070;13.222;2023-04-06T13:23:02;23.60;28.00
23377;DHT22;14353;46.070;13.222;2023-04-06T13:25:28;23.60;28.00
23377;DHT22;14353;46.070;13.222;2023-04-06T13:27:54;23.60;28.00
23377;DHT22;14353;46.070;13.222;2023-04-06T13:30:21;23.70;28.00
23377;DHT22;14353;46.070;13.222;2023-04-06T13:32:46;23.70;28.00
23377;DHT22;14353;46.070;13.222;2023-04-06T13:35:12;23.70;28.00
23377;DHT22;14353;46.070;13.222;2023-04-06T13:37:38;23.80;28.00
23377;DHT22;14353;46.070;13.222;2023-04-06T13:40:05;23.80;28.00
23377;DHT22;14353;46.070;13.222;2023-04-06T13:42:31;23.80;28.00
23377;DHT22;14353;46.070;13.222;2023-04-06T13:44:58;23.80;27.90
23377;DHT22;14353;46.070;13.222;2023-04-06T13:47:24;23.80;27.90
23377;DHT22;14353;46.070;13.222;2023-04-06T13:49:50;23.80;27.90
23377;DHT22;14353;46.070;13.222;2023-04-06T13:52:19;23.90;27.90
23377;DHT22;14353;46.070;13.222;2023-04-06T13:54:45;23.90;27.90
23377;DHT22;14353;46.070;13.222;2023-04-06T13:57:11;23.90;27.90
23377;DHT22;14353;46.070;13.222;2023-04-06T13:59:38;23.90;27.90
23377;DHT22;14353;46.070;13.222;2023-04-06T14:02:05;23.90;27.90
23377;DHT22;14353;46.070;13.222;2023-04-06T14:04:31;23.90;27.80
23377;DHT22;14353;46.070;13.222;2023-04-06T14:06:57;23.90;27.80
23377;DHT22;14353;46.070;13.222;2023-04-06T14:09:23;24.00;27.90
23377;DHT22;14353;46.070;13.222;2023-04-06T14:11:49;24.00;27.90
23377;DHT22;14353;46.070;13.222;2023-04-06T14:14:16;24.00;27.90
23377;DHT22;14353;46.070;13.222;2023-04-06T14:16:42;24.00;27.90
23377;DHT22;14353;46.070;13.222;2023-04-06T14:19:12;24.00;27.90
23377;DHT22;14353;46.070;13.222;2023-04-06T14:21:38;24.10;27.90
23377;DHT22;14353;46.070;13.222;2023-04-06T14:24:06;24.10;27.90
23377;DHT22;14353;46.070;13.222;2023-04-06T14:26:32;24.10;27.90
23377;DHT22;14353;46.070;13.222;2023-04-06T14:29:02;24.10;27.90
23377;DHT22;14353;46.070;13.222;2023-04-06T14:31:28;24.10;27.90
23377;DHT22;14353;46.070;13.222;2023-04-06T14:33:54;24.10;27.90
23377;DHT22;14353;46.070;13.222;2023-04-06T14:36:20;24.10;27.90
23377;DHT22;14353;46.070;13.222;2023-04-06T14:38:46;24.10;27.90
23377;DHT22;14353;46.070;13.222;2023-04-06T14:41:16;24.10;27.90
23377;DHT22;14353;46.070;13.222;2023-04-06T14:43:43;24.20;27.90
23377;DHT22;14353;46.070;13.222;2023-04-06T14:46:09;24.20;27.90
23377;DHT22;14353;46.070;13.222;2023-04-06T14:48:35;24.20;27.90
23377;DHT22;14353;46.070;13.222;2023-04-06T14:51:02;24.20;27.90
23377;DHT22;14353;46.070;13.222;2023-04-06T14:53:28;24.20;27.90
23377;DHT22;14353;46.070;13.222;2023-04-06T14:55:55;24.20;27.90
23377;DHT22;14353;46.070;13.222;2023-04-06T14:58:21;24.20;28.10
23377;DHT22;14353;46.070;13.222;2023-04-06T15:00:47;24.20;27.90
23377;DHT22;14353;46.070;13.222;2023-04-06T15:03:14;24.30;28.00
23377;DHT22;14353;46.070;13.222;2023-04-06T15:05:40;24.30;27.90
23377;DHT22;14353;46.070;13.222;2023-04-06T15:08:06;24.30;28.40
23377;DHT22;14353;46.070;13.222;2023-04-06T15:10:35;24.30;27.90
23377;DHT22;14353;46.070;13.222;2023-04-06T15:13:01;24.40;27.90
23377;DHT22;14353;46.070;13.222;2023-04-06T15:15:28;24.40;28.00
23377;DHT22;14353;46.070;13.222;2023-04-06T15:17:53;24.40;27.90